createdAt,value
2016-09-08T00:00:00.768Z,13.3
2016-09-08T00:01:00.739Z,13.25
2016-09-08T00:02:00.709Z,13.3
2016-09-08T00:03:00.371Z,13.26
2016-09-08T00:04:00.340Z,13.25
2016-09-08T00:05:00.605Z,13.29
2016-09-08T00:06:00.566Z,13.29
2016-09-08T00:07:00.533Z,13.17
2016-09-08T00:08:00.200Z,13.17
2016-09-08T00:09:00.161Z,13.22
2016-09-08T00:10:00.128Z,13.17
2016-09-08T00:11:00.417Z,13.25
2016-09-08T00:11:59.760Z,13.19
2016-09-08T00:13:00.026Z,13.17
2016-09-08T00:13:59.995Z,13.22
2016-09-08T00:15:00.257Z,13.08
2016-09-08T00:16:00.231Z,13.22
2016-09-08T00:17:00.197Z,13.12
2016-09-08T00:18:00.164Z,13.14
2016-09-08T00:19:00.124Z,13.15
2016-09-08T00:20:00.103Z,13.03
2016-09-08T00:20:59.758Z,13.1
2016-09-08T00:22:00.025Z,13.11
2016-09-08T00:22:59.994Z,13.1
2016-09-08T00:23:59.959Z,13.04
2016-09-08T00:24:59.623Z,13.1
2016-09-08T00:25:59.591Z,13.04
2016-09-08T00:26:59.255Z,13.03
2016-09-08T00:27:59.521Z,13.05
2016-09-08T00:28:59.795Z,13.12
2016-09-08T00:29:59.757Z,13.05
2016-09-08T00:30:59.419Z,13.05
2016-09-08T00:31:59.386Z,13.04
2016-09-08T00:32:59.347Z,13.08
2016-09-08T00:33:59.321Z,13.08
2016-09-08T00:34:59.287Z,13.03
2016-09-08T00:35:59.554Z,12.97
2016-09-08T00:36:59.226Z,13.1
2016-09-08T00:37:59.483Z,13.07
2016-09-08T00:38:59.450Z,13.04
2016-09-08T00:39:59.414Z,13
2016-09-08T00:40:59.082Z,13.05
2016-09-08T00:41:59.051Z,13.03
2016-09-08T00:42:59.019Z,13
2016-09-08T00:43:59.285Z,13.04
2016-09-08T00:44:59.249Z,13.01
2016-09-08T00:45:58.914Z,13
2016-09-08T00:46:59.177Z,12.93
2016-09-08T00:47:59.146Z,13.05
2016-09-08T00:48:59.115Z,13.08
2016-09-08T00:49:58.474Z,13.05
2016-09-08T00:50:59.045Z,13
2016-09-08T00:51:59.015Z,13.03
2016-09-08T00:52:58.973Z,13.07
2016-09-08T00:53:58.641Z,13.03
2016-09-08T00:54:58.609Z,12.97
2016-09-08T00:55:58.574Z,12.96
2016-09-08T00:56:58.246Z,13.01
2016-09-08T00:57:58.810Z,13.01
2016-09-08T00:58:58.772Z,13.01
2016-09-08T00:59:58.436Z,13.03
2016-09-08T01:00:58.706Z,13.05
2016-09-08T01:01:58.375Z,12.97
2016-09-08T01:02:58.333Z,13.05
2016-09-08T01:03:58.618Z,13.05
2016-09-08T01:04:57.963Z,13.03
2016-09-08T01:05:58.535Z,13.07
2016-09-08T01:06:58.505Z,13.05
2016-09-08T01:07:58.470Z,12.9
2016-09-08T01:08:58.446Z,12.95
2016-09-08T01:09:58.400Z,13.07
2016-09-08T01:10:58.069Z,13.08
2016-09-08T01:11:58.341Z,13.05
2016-09-08T01:12:57.999Z,13.07
2016-09-08T01:13:57.967Z,13
2016-09-08T01:14:58.228Z,12.97
2016-09-08T01:15:58.201Z,13.01
2016-09-08T01:16:58.169Z,12.93
2016-09-08T01:17:57.524Z,13.01
2016-09-08T01:18:58.092Z,12.95
2016-09-08T01:19:57.758Z,13.03
2016-09-08T01:20:58.023Z,13.07
2016-09-08T01:21:57.995Z,13.03
2016-09-08T01:22:57.962Z,12.95
2016-09-08T01:23:57.620Z,12.96
2016-09-08T01:24:57.588Z,12.87
2016-09-08T01:25:57.857Z,12.9
2016-09-08T01:26:57.822Z,13
2016-09-08T01:27:57.790Z,12.89
2016-09-08T01:28:57.455Z,12.96
2016-09-08T01:29:57.418Z,12.89
2016-09-08T01:30:57.685Z,12.92
2016-09-08T01:31:57.346Z,12.9
2016-09-08T01:32:57.618Z,12.89
2016-09-08T01:33:57.280Z,12.92
2016-09-08T01:34:57.557Z,12.89
2016-09-08T01:35:57.215Z,12.85
2016-09-08T01:36:57.186Z,12.85
2016-09-08T01:37:56.844Z,12.85
2016-09-08T01:38:57.424Z,12.89
2016-09-08T01:39:56.777Z,12.89
2016-09-08T01:40:57.349Z,12.86
2016-09-08T01:41:57.011Z,12.78
2016-09-08T01:42:57.278Z,12.87
2016-09-08T01:43:57.240Z,12.89
2016-09-08T01:44:57.209Z,12.85
2016-09-08T01:45:57.174Z,12.87
2016-09-08T01:46:56.853Z,12.86
2016-09-08T01:47:57.108Z,12.79
2016-09-08T01:48:56.770Z,12.85
2016-09-08T01:49:57.041Z,12.83
2016-09-08T01:50:56.707Z,12.83
2016-09-08T01:51:56.973Z,12.82
2016-09-08T01:52:56.937Z,12.77
2016-09-08T01:53:56.900Z,12.83
2016-09-08T01:54:56.570Z,12.78
2016-09-08T01:55:56.536Z,12.72
2016-09-08T01:56:56.501Z,12.75
2016-09-08T01:57:56.769Z,12.75
2016-09-08T01:58:56.734Z,12.79
2016-09-08T01:59:56.702Z,12.72
2016-09-08T02:00:56.361Z,12.75
2016-09-08T02:01:56.345Z,12.78
2016-09-08T02:02:56.296Z,12.77
2016-09-08T02:03:56.260Z,12.79
2016-09-08T02:04:56.225Z,12.68
2016-09-08T02:05:56.194Z,12.77
2016-09-08T02:06:56.456Z,12.71
2016-09-08T02:07:56.125Z,12.77
2016-09-08T02:08:55.791Z,12.71
2016-09-08T02:09:56.355Z,12.78
2016-09-08T02:10:56.022Z,12.75
2016-09-08T02:11:55.987Z,12.77
2016-09-08T02:12:56.252Z,12.7
2016-09-08T02:13:55.917Z,12.77
2016-09-08T02:14:55.885Z,12.72
2016-09-08T02:15:56.149Z,12.77
2016-09-08T02:16:55.841Z,12.77
2016-09-08T02:17:56.087Z,12.77
2016-09-08T02:18:55.750Z,12.77
2016-09-08T02:19:55.715Z,12.67
2016-09-08T02:20:55.989Z,12.67
2016-09-08T02:21:55.950Z,12.74
2016-09-08T02:22:55.923Z,12.64
2016-09-08T02:23:55.579Z,12.68
2016-09-08T02:24:55.844Z,12.67
2016-09-08T02:25:55.810Z,12.7
2016-09-08T02:26:55.477Z,12.65
2016-09-08T02:27:55.746Z,12.65
2016-09-08T02:28:55.403Z,12.71
2016-09-08T02:29:55.372Z,12.57
2016-09-08T02:30:55.639Z,12.65
2016-09-08T02:31:55.309Z,12.65
2016-09-08T02:32:55.266Z,12.57
2016-09-08T02:33:55.547Z,12.56
2016-09-08T02:34:55.499Z,12.54
2016-09-08T02:35:55.464Z,12.59
2016-09-08T02:36:55.436Z,12.57
2016-09-08T02:37:55.402Z,12.56
2016-09-08T02:38:55.071Z,12.5
2016-09-08T02:39:55.036Z,12.54
2016-09-08T02:40:55.294Z,12.57
2016-09-08T02:41:55.266Z,12.59
2016-09-08T02:42:54.926Z,12.59
2016-09-08T02:43:55.197Z,12.56
2016-09-08T02:44:54.555Z,12.56
2016-09-08T02:45:55.125Z,12.54
2016-09-08T02:46:55.094Z,12.42
2016-09-08T02:47:55.062Z,12.45
2016-09-08T02:48:54.725Z,12.42
2016-09-08T02:49:54.989Z,12.42
2016-09-08T02:50:54.650Z,12.45
2016-09-08T02:51:54.317Z,12.41
2016-09-08T02:52:54.888Z,12.47
2016-09-08T02:53:54.547Z,12.45
2016-09-08T02:54:54.516Z,12.39
2016-09-08T02:55:54.779Z,12.42
2016-09-08T02:56:54.446Z,12.39
2016-09-08T02:57:54.412Z,12.41
2016-09-08T02:58:54.680Z,12.31
2016-09-08T02:59:54.340Z,12.32
2016-09-08T03:00:54.613Z,12.45
2016-09-08T03:01:54.578Z,12.28
2016-09-08T03:02:54.242Z,12.31
2016-09-08T03:03:54.507Z,12.28
2016-09-08T03:04:53.867Z,12.32
2016-09-08T03:05:54.136Z,12.31
2016-09-08T03:06:54.104Z,12.34
2016-09-08T03:07:53.782Z,12.28
2016-09-08T03:08:54.032Z,12.31
2016-09-08T03:09:54.002Z,12.38
2016-09-08T03:10:54.265Z,12.24
2016-09-08T03:11:53.932Z,12.39
2016-09-08T03:12:54.196Z,12.39
2016-09-08T03:13:54.172Z,12.32
2016-09-08T03:14:54.133Z,12.39
2016-09-08T03:15:53.791Z,12.47
2016-09-08T03:16:53.763Z,12.38
2016-09-08T03:17:53.725Z,12.47
2016-09-08T03:18:53.989Z,12.41
2016-09-08T03:19:53.960Z,12.46
2016-09-08T03:20:53.624Z,12.39
2016-09-08T03:21:53.587Z,12.35
2016-09-08T03:22:53.247Z,12.39
2016-09-08T03:23:53.818Z,12.35
2016-09-08T03:24:53.486Z,12.31
2016-09-08T03:25:53.444Z,12.34
2016-09-08T03:26:53.416Z,12.35
2016-09-08T03:27:53.685Z,12.28
2016-09-08T03:28:53.670Z,12.29
2016-09-08T03:29:53.333Z,12.29
2016-09-08T03:30:53.581Z,12.29
2016-09-08T03:31:53.242Z,12.29
2016-09-08T03:32:53.506Z,12.29
2016-09-08T03:33:53.471Z,12.21
2016-09-08T03:34:53.435Z,12.17
2016-09-08T03:35:52.802Z,12.19
2016-09-08T03:36:53.376Z,12.27
2016-09-08T03:37:53.039Z,12.19
2016-09-08T03:38:53.001Z,12.17
2016-09-08T03:39:53.271Z,12.23
2016-09-08T03:40:53.233Z,12.17
2016-09-08T03:41:52.898Z,12.14
2016-09-08T03:42:53.164Z,12.17
2016-09-08T03:43:53.131Z,12.14
2016-09-08T03:44:52.800Z,12.27
2016-09-08T03:45:52.766Z,12.2
2016-09-08T03:46:53.028Z,12.13
2016-09-08T03:47:52.995Z,12.17
2016-09-08T03:48:52.355Z,12.2
2016-09-08T03:49:52.622Z,12.14
2016-09-08T03:50:52.892Z,12.16
2016-09-08T03:51:52.556Z,12.21
2016-09-08T03:52:52.515Z,12.14
2016-09-08T03:53:52.788Z,12.19
2016-09-08T03:54:52.750Z,12.2
2016-09-08T03:55:52.413Z,12.19
2016-09-08T03:56:52.380Z,12.17
2016-09-08T03:57:52.653Z,12.19
2016-09-08T03:58:52.612Z,12.17
2016-09-08T03:59:52.583Z,12.2
2016-09-08T04:00:52.246Z,12.16
2016-09-08T04:01:52.209Z,12.14
2016-09-08T04:02:52.176Z,12.2
2016-09-08T04:03:52.144Z,12.17
2016-09-08T04:04:52.418Z,12.19
2016-09-08T04:05:52.372Z,12.2
2016-09-08T04:06:52.344Z,12.23
2016-09-08T04:07:52.005Z,12.2
2016-09-08T04:08:52.274Z,12.12
2016-09-08T04:09:51.934Z,12.17
2016-09-08T04:10:52.202Z,12.14
2016-09-08T04:11:52.162Z,12.12
2016-09-08T04:12:52.131Z,12.14
2016-09-08T04:13:52.108Z,12.14
2016-09-08T04:14:51.458Z,12.16
2016-09-08T04:15:52.030Z,12.21
2016-09-08T04:16:51.995Z,12.16
2016-09-08T04:17:51.655Z,12.17
2016-09-08T04:18:51.922Z,12.21
2016-09-08T04:19:51.585Z,12.34
2016-09-08T04:20:51.553Z,12.29
2016-09-08T04:21:51.829Z,12.32
2016-09-08T04:22:51.785Z,12.28
2016-09-08T04:23:51.757Z,12.38
2016-09-08T04:24:51.420Z,12.5
2016-09-08T04:25:51.686Z,12.46
2016-09-08T04:26:51.353Z,12.57
2016-09-08T04:27:51.314Z,12.54
2016-09-08T04:28:51.275Z,12.57
2016-09-08T04:29:51.241Z,12.71
2016-09-08T04:30:51.205Z,12.67
2016-09-08T04:31:51.173Z,12.75
2016-09-08T04:32:51.439Z,12.78
2016-09-08T04:33:51.407Z,12.83
2016-09-08T04:34:51.070Z,12.89
2016-09-08T04:35:51.339Z,12.87
2016-09-08T04:36:51.303Z,12.87
2016-09-08T04:37:50.969Z,13.05
2016-09-08T04:38:50.935Z,13
2016-09-08T04:39:51.200Z,13.03
2016-09-08T04:40:50.863Z,12.95
2016-09-08T04:41:50.838Z,13
2016-09-08T04:42:50.795Z,13.11
2016-09-08T04:43:50.765Z,13.07
2016-09-08T04:44:51.027Z,13.12
2016-09-08T04:45:50.696Z,13.17
2016-09-08T04:46:50.963Z,13.19
2016-09-08T04:47:50.930Z,13.23
2016-09-08T04:48:50.591Z,13.25
2016-09-08T04:49:50.562Z,13.38
2016-09-08T04:50:50.829Z,13.39
2016-09-08T04:51:50.791Z,13.41
2016-09-08T04:52:50.454Z,13.49
2016-09-08T04:53:50.427Z,13.42
2016-09-08T04:54:50.390Z,13.6
2016-09-08T04:55:50.047Z,13.59
2016-09-08T04:56:50.327Z,13.57
2016-09-08T04:57:50.590Z,13.6
2016-09-08T04:58:50.253Z,13.7
2016-09-08T04:59:50.214Z,13.66
2016-09-08T05:00:50.184Z,13.69
2016-09-08T05:01:50.151Z,13.81
2016-09-08T05:02:50.117Z,13.79
2016-09-08T05:03:50.386Z,13.84
2016-09-08T05:04:50.051Z,13.84
2016-09-08T05:05:50.027Z,13.85
2016-09-08T05:06:50.287Z,13.95
2016-09-08T05:07:49.647Z,13.99
2016-09-08T05:08:49.610Z,13.95
2016-09-08T05:09:50.188Z,13.89
2016-09-08T05:10:49.844Z,13.91
2016-09-08T05:11:49.814Z,14.04
2016-09-08T05:12:49.778Z,14.03
2016-09-08T05:13:49.751Z,14.07
2016-09-08T05:14:49.714Z,14.12
2016-09-08T05:15:49.680Z,14.14
2016-09-08T05:16:49.945Z,14.18
2016-09-08T05:17:49.913Z,14.24
2016-09-08T05:18:49.580Z,14.21
2016-09-08T05:19:49.547Z,14.18
2016-09-08T05:20:49.816Z,14.22
2016-09-08T05:21:49.480Z,14.29
2016-09-08T05:22:49.751Z,14.29
2016-09-08T05:23:49.715Z,14.35
2016-09-08T05:24:49.686Z,14.37
2016-09-08T05:25:49.648Z,14.37
2016-09-08T05:26:49.309Z,14.4
2016-09-08T05:27:49.585Z,14.54
2016-09-08T05:28:49.547Z,14.45
2016-09-08T05:29:49.515Z,14.51
2016-09-08T05:30:49.482Z,14.46
2016-09-08T05:31:49.449Z,14.55
2016-09-08T05:32:49.116Z,14.57
2016-09-08T05:33:49.379Z,14.57
2016-09-08T05:34:49.351Z,14.68
2016-09-08T05:35:49.325Z,14.72
2016-09-08T05:36:48.686Z,14.73
2016-09-08T05:37:48.646Z,14.77
2016-09-08T05:38:49.223Z,14.77
2016-09-08T05:39:48.878Z,14.86
2016-09-08T05:40:48.849Z,14.89
2016-09-08T05:41:48.820Z,14.89
2016-09-08T05:42:49.089Z,14.94
2016-09-08T05:43:49.171Z,15.07
2016-09-08T05:44:48.714Z,15.09
2016-09-08T05:45:48.987Z,15.03
2016-09-08T05:46:48.954Z,15.16
2016-09-08T05:47:48.632Z,15.13
2016-09-08T05:48:48.889Z,15.23
2016-09-08T05:49:48.858Z,15.31
2016-09-08T05:50:48.822Z,15.27
2016-09-08T05:51:48.790Z,15.38
2016-09-08T05:52:48.453Z,15.41
2016-09-08T05:53:48.719Z,15.39
2016-09-08T05:54:48.688Z,15.51
2016-09-08T05:55:48.656Z,15.59
2016-09-08T05:56:48.331Z,15.67
2016-09-08T05:57:48.291Z,15.6
2016-09-08T05:58:48.259Z,15.72
2016-09-08T05:59:48.529Z,15.71
2016-09-08T06:00:48.512Z,15.76
2016-09-08T06:01:48.158Z,15.82
2016-09-08T06:02:48.428Z,15.84
2016-09-08T06:03:47.792Z,15.86
2016-09-08T06:04:48.059Z,15.93
2016-09-08T06:05:48.031Z,16.04
2016-09-08T06:06:48.298Z,16
2016-09-08T06:07:48.272Z,16.11
2016-09-08T06:08:48.240Z,16.12
2016-09-08T06:09:48.205Z,16.14
2016-09-08T06:10:48.180Z,16.25
2016-09-08T06:11:47.840Z,16.28
2016-09-08T06:12:48.104Z,16.25
2016-09-08T06:13:47.774Z,16.25
2016-09-08T06:14:48.042Z,16.34
2016-09-08T06:15:48.012Z,16.38
2016-09-08T06:16:47.979Z,16.56
2016-09-08T06:17:47.948Z,16.58
2016-09-08T06:18:47.918Z,16.64
2016-09-08T06:19:47.909Z,16.66
2016-09-08T06:20:47.561Z,16.68
2016-09-08T06:21:47.823Z,16.79
2016-09-08T06:22:47.808Z,16.85
2016-09-08T06:23:47.758Z,16.83
2016-09-08T06:24:47.721Z,16.94
2016-09-08T06:25:47.694Z,16.98
2016-09-08T06:26:47.356Z,17.06
2016-09-08T06:27:47.631Z,17.12
2016-09-08T06:28:47.295Z,17.16
2016-09-08T06:29:47.264Z,17.25
2016-09-08T06:30:47.537Z,17.37
2016-09-08T06:31:47.506Z,17.34
2016-09-08T06:32:47.475Z,17.28
2016-09-08T06:33:47.134Z,17.38
2016-09-08T06:34:47.409Z,17.48
2016-09-08T06:35:47.383Z,17.51
2016-09-08T06:36:47.047Z,17.64
2016-09-08T06:37:47.317Z,17.77
2016-09-08T06:38:47.298Z,17.82
2016-09-08T06:39:47.258Z,17.78
2016-09-08T06:40:47.223Z,17.82
2016-09-08T06:41:47.193Z,17.93
2016-09-08T06:42:47.163Z,18.07
2016-09-08T06:43:47.141Z,18.18
2016-09-08T06:44:46.795Z,18.25
2016-09-08T06:45:47.069Z,18.2
2016-09-08T06:46:47.038Z,18.25
2016-09-08T06:47:46.400Z,18.32
2016-09-08T06:48:46.973Z,18.37
2016-09-08T06:49:46.942Z,18.37
2016-09-08T06:50:46.914Z,18.48
2016-09-08T06:51:46.885Z,18.44
2016-09-08T06:52:46.552Z,18.54
2016-09-08T06:53:46.825Z,18.51
2016-09-08T06:54:46.792Z,18.55
2016-09-08T06:55:46.459Z,18.54
2016-09-08T06:56:46.728Z,18.69
2016-09-08T06:57:46.703Z,18.57
2016-09-08T06:58:46.671Z,18.58
2016-09-08T06:59:46.354Z,18.72
2016-09-08T07:00:46.609Z,18.66
2016-09-08T07:01:46.583Z,18.7
2016-09-08T07:02:46.556Z,18.85
2016-09-08T07:03:46.520Z,18.94
2016-09-08T07:04:46.495Z,19
2016-09-08T07:05:46.463Z,18.95
2016-09-08T07:06:46.428Z,19.07
2016-09-08T07:07:46.097Z,18.99
2016-09-08T07:08:46.189Z,19.13
2016-09-08T07:09:46.340Z,19.25
2016-09-08T07:10:46.018Z,19.22
2016-09-08T07:11:46.282Z,19.36
2016-09-08T07:12:46.249Z,19.41
2016-09-08T07:13:46.232Z,19.59
2016-09-08T07:14:46.189Z,19.65
2016-09-08T07:15:45.860Z,19.71
2016-09-08T07:16:46.133Z,19.91
2016-09-08T07:17:46.105Z,19.96
2016-09-08T07:18:46.083Z,20.17
2016-09-08T07:19:46.055Z,20.2
2016-09-08T07:20:46.015Z,20.32
2016-09-08T07:21:45.994Z,20.29
2016-09-08T07:22:45.966Z,20.51
2016-09-08T07:23:45.334Z,20.59
2016-09-08T07:24:45.598Z,20.61
2016-09-08T07:25:45.868Z,20.61
2016-09-08T07:26:45.843Z,20.57
2016-09-08T07:27:45.817Z,20.55
2016-09-08T07:28:45.781Z,20.42
2016-09-08T07:29:45.762Z,20.33
2016-09-08T07:30:45.729Z,20.36
2016-09-08T07:31:45.701Z,20.31
2016-09-08T07:32:45.363Z,20.29
2016-09-08T07:33:45.635Z,20.23
2016-09-08T07:34:45.309Z,20.29
2016-09-08T07:35:45.577Z,20.48
2016-09-08T07:36:45.552Z,20.59
2016-09-08T07:37:45.523Z,20.77
2016-09-08T07:38:45.192Z,21.1
2016-09-08T07:39:45.465Z,21.46
2016-09-08T07:40:45.431Z,22.03
2016-09-08T07:41:45.105Z,22.72
2016-09-08T07:42:45.378Z,23.31
2016-09-08T07:43:45.353Z,24.08
2016-09-08T07:44:45.321Z,24.8
2016-09-08T07:45:45.299Z,25.58
2016-09-08T07:46:45.272Z,26.32
2016-09-08T07:47:45.242Z,26.8
2016-09-08T07:48:45.219Z,27.1
2016-09-08T07:49:44.889Z,27.47
2016-09-08T07:50:45.164Z,28.36
2016-09-08T07:51:45.134Z,29.34
2016-09-08T07:52:44.513Z,30.31
2016-09-08T07:53:45.082Z,31.13
2016-09-08T07:54:45.060Z,32.03
2016-09-08T07:55:45.042Z,32.92
2016-09-08T07:56:45.018Z,33.66
2016-09-08T07:57:44.688Z,34.42
2016-09-08T07:58:44.963Z,35.11
2016-09-08T07:59:44.949Z,35.66
2016-09-08T08:00:44.621Z,36.22
2016-09-08T08:01:44.600Z,36.8
2016-09-08T08:02:44.873Z,37.29
2016-09-08T08:03:44.246Z,37.75
2016-09-08T08:04:44.831Z,38.16
2016-09-08T08:05:44.510Z,38.61
2016-09-08T08:06:44.790Z,38.86
2016-09-08T08:07:44.768Z,39.28
2016-09-08T08:08:44.449Z,39.55
2016-09-08T08:09:44.727Z,39.86
2016-09-08T08:10:44.711Z,39.88
2016-09-08T08:11:44.686Z,40.18
2016-09-08T08:12:44.368Z,40.55
2016-09-08T08:13:44.651Z,40.87
2016-09-08T08:14:44.630Z,41.16
2016-09-08T08:15:44.616Z,41.42
2016-09-08T08:16:44.288Z,41.63
2016-09-08T08:17:43.969Z,41.99
2016-09-08T08:18:44.262Z,42.16
2016-09-08T08:19:44.536Z,42.42
2016-09-08T08:20:44.518Z,42.52
2016-09-08T08:21:44.507Z,42.62
2016-09-08T08:22:44.176Z,42.83
2016-09-08T08:23:44.464Z,42.93
2016-09-08T08:24:44.445Z,43.17
2016-09-08T08:25:44.429Z,43.33
2016-09-08T08:26:44.411Z,43.64
2016-09-08T08:27:44.393Z,43.86
2016-09-08T08:28:44.372Z,44.12
2016-09-08T08:29:44.055Z,44.39
2016-09-08T08:30:44.346Z,44.51
2016-09-08T08:31:44.021Z,44.51
2016-09-08T08:32:44.004Z,44.67
2016-09-08T08:33:44.282Z,44.88
2016-09-08T08:34:44.276Z,45.05
2016-09-08T08:35:44.257Z,45.23
2016-09-08T08:36:44.244Z,45.39
2016-09-08T08:37:44.221Z,45.69
2016-09-08T08:38:43.919Z,45.67
2016-09-08T08:39:44.191Z,45.93
2016-09-08T08:40:44.179Z,45.93
2016-09-08T08:41:44.179Z,46.12
2016-09-08T08:42:44.144Z,46.28
2016-09-08T08:43:43.534Z,46.39
2016-09-08T08:44:43.826Z,46.56
2016-09-08T08:45:44.096Z,46.59
2016-09-08T08:46:44.093Z,46.61
2016-09-08T08:47:44.078Z,46.61
2016-09-08T08:48:44.055Z,46.53
2016-09-08T08:49:44.035Z,46.33
2016-09-08T08:50:44.023Z,46.53
2016-09-08T08:51:44.006Z,46.72
2016-09-08T08:52:43.386Z,46.84
2016-09-08T08:53:43.761Z,46.95
2016-09-08T08:54:43.659Z,47.03
2016-09-08T08:55:43.946Z,47.05
2016-09-08T08:56:43.938Z,47.07
2016-09-08T08:57:43.925Z,47.18
2016-09-08T08:58:43.908Z,47.15
2016-09-08T08:59:43.888Z,46.95
2016-09-08T09:00:43.873Z,46.81
2016-09-08T09:01:43.864Z,46.76
2016-09-08T09:02:43.844Z,46.91
2016-09-08T09:03:43.828Z,46.91
2016-09-08T09:04:43.821Z,46.88
2016-09-08T09:05:43.498Z,46.98
2016-09-08T09:06:43.791Z,47.15
2016-09-08T09:07:43.774Z,47.19
2016-09-08T09:08:43.838Z,47.17
2016-09-08T09:09:43.445Z,47.24
2016-09-08T09:10:43.431Z,47.44
2016-09-08T09:11:43.714Z,47.51
2016-09-08T09:12:43.703Z,47.63
2016-09-08T09:13:43.688Z,47.61
2016-09-08T09:14:43.373Z,47.63
2016-09-08T09:15:43.668Z,47.5
2016-09-08T09:16:43.346Z,47.31
2016-09-08T09:17:43.638Z,47.31
2016-09-08T09:18:43.623Z,47.24
2016-09-08T09:19:43.613Z,47.12
2016-09-08T09:20:43.598Z,47.1
2016-09-08T09:21:43.285Z,47.1
2016-09-08T09:22:43.573Z,46.93
2016-09-08T09:23:43.266Z,46.78
2016-09-08T09:24:43.544Z,46.81
2016-09-08T09:25:43.528Z,46.86
2016-09-08T09:26:42.914Z,46.87
2016-09-08T09:27:43.505Z,46.84
2016-09-08T09:28:43.493Z,46.87
2016-09-08T09:29:43.475Z,46.77
2016-09-08T09:30:43.474Z,46.8
2016-09-08T09:31:43.460Z,46.53
2016-09-08T09:32:43.135Z,46.54
2016-09-08T09:33:43.425Z,46.77
2016-09-08T09:34:43.108Z,46.88
2016-09-08T09:35:43.097Z,46.9
2016-09-08T09:36:43.082Z,47.05
2016-09-08T09:37:43.371Z,47.07
2016-09-08T09:38:43.361Z,47.18
2016-09-08T09:39:43.349Z,47.14
2016-09-08T09:40:43.333Z,47
2016-09-08T09:41:43.319Z,46.9
2016-09-08T09:42:43.003Z,47.02
2016-09-08T09:43:42.989Z,46.93
2016-09-08T09:44:43.283Z,46.91
2016-09-08T09:45:42.960Z,47
2016-09-08T09:46:43.252Z,47.06
2016-09-08T09:47:42.940Z,47.03
2016-09-08T09:48:42.937Z,46.88
2016-09-08T09:49:43.213Z,46.64
2016-09-08T09:50:43.202Z,46.43
2016-09-08T09:51:43.190Z,46.24
2016-09-08T09:52:43.181Z,46.39
2016-09-08T09:53:42.861Z,46.35
2016-09-08T09:54:43.150Z,46.33
2016-09-08T09:55:43.151Z,46.53
2016-09-08T09:56:42.822Z,46.61
2016-09-08T09:57:43.122Z,46.62
2016-09-08T09:58:43.103Z,46.8
2016-09-08T09:59:43.087Z,47
2016-09-08T10:00:43.073Z,47.24
2016-09-08T10:01:42.758Z,47.41
2016-09-08T10:02:43.053Z,47.51
2016-09-08T10:03:42.735Z,47.72
2016-09-08T10:04:43.018Z,47.67
2016-09-08T10:05:43.012Z,47.53
2016-09-08T10:06:43.003Z,47.67
2016-09-08T10:07:42.994Z,47.72
2016-09-08T10:08:42.985Z,47.75
2016-09-08T10:09:42.974Z,47.79
2016-09-08T10:10:42.960Z,47.82
2016-09-08T10:11:42.944Z,47.82
2016-09-08T10:12:42.627Z,47.88
2016-09-08T10:13:42.922Z,47.67
2016-09-08T10:14:42.910Z,47.5
2016-09-08T10:15:42.587Z,47.5
2016-09-08T10:16:42.883Z,47.41
2016-09-08T10:17:42.875Z,47.31
2016-09-08T10:18:42.859Z,47.19
2016-09-08T10:19:42.252Z,47.26
2016-09-08T10:20:42.834Z,47.36
2016-09-08T10:21:42.833Z,47.28
2016-09-08T10:22:42.807Z,47.12
2016-09-08T10:23:42.798Z,47.07
2016-09-08T10:24:42.482Z,46.98
2016-09-08T10:25:42.778Z,46.91
2016-09-08T10:26:42.762Z,46.87
2016-09-08T10:27:42.746Z,46.83
2016-09-08T10:28:42.738Z,46.68
2016-09-08T10:29:42.720Z,46.83
2016-09-08T10:30:42.715Z,46.66
2016-09-08T10:31:42.090Z,46.69
2016-09-08T10:32:42.688Z,46.52
2016-09-08T10:33:42.370Z,46.49
2016-09-08T10:34:42.676Z,46.54
2016-09-08T10:35:42.651Z,46.72
2016-09-08T10:36:42.342Z,46.64
2016-09-08T10:37:42.627Z,46.5
2016-09-08T10:38:42.308Z,46.65
2016-09-08T10:39:42.292Z,46.72
2016-09-08T10:40:42.583Z,46.8
2016-09-08T10:41:42.566Z,46.69
2016-09-08T10:42:42.259Z,46.74
2016-09-08T10:43:42.545Z,46.74
2016-09-08T10:44:42.530Z,46.86
2016-09-08T10:45:42.522Z,46.87
2016-09-08T10:46:42.500Z,46.93
2016-09-08T10:47:42.490Z,46.77
2016-09-08T10:48:42.476Z,46.68
2016-09-08T10:49:42.464Z,46.54
2016-09-08T10:50:42.449Z,46.37
2016-09-08T10:51:42.432Z,46.26
2016-09-08T10:52:42.425Z,46.15
2016-09-08T10:53:42.100Z,45.98
2016-09-08T10:54:42.389Z,45.7
2016-09-08T10:55:42.066Z,45.31
2016-09-08T10:56:42.058Z,44.89
2016-09-08T10:57:42.350Z,44.55
2016-09-08T10:58:42.334Z,44.28
2016-09-08T10:59:42.328Z,44.1
2016-09-08T11:00:42.300Z,43.71
2016-09-08T11:01:42.287Z,43.56
2016-09-08T11:02:41.666Z,43.45
2016-09-08T11:03:41.954Z,43.37
2016-09-08T11:04:41.941Z,43.14
2016-09-08T11:05:41.926Z,43.08
2016-09-08T11:06:42.217Z,43
2016-09-08T11:07:42.194Z,43.02
2016-09-08T11:08:41.900Z,42.86
2016-09-08T11:09:42.163Z,42.76
2016-09-08T11:10:41.845Z,42.42
2016-09-08T11:11:42.130Z,42.21
2016-09-08T11:12:42.123Z,41.91
2016-09-08T11:13:42.100Z,41.69
2016-09-08T11:14:42.084Z,41.35
2016-09-08T11:15:42.072Z,41.17
2016-09-08T11:16:42.050Z,40.83
2016-09-08T11:17:41.729Z,40.41
2016-09-08T11:18:42.014Z,40.18
2016-09-08T11:19:42.001Z,39.92
2016-09-08T11:20:41.977Z,39.81
2016-09-08T11:21:41.969Z,39.54
2016-09-08T11:22:41.949Z,39.29
2016-09-08T11:23:41.631Z,38.95
2016-09-08T11:24:41.908Z,38.63
2016-09-08T11:25:41.892Z,38.31
2016-09-08T11:26:41.872Z,37.91
2016-09-08T11:27:41.550Z,37.59
2016-09-08T11:28:41.833Z,37.21
2016-09-08T11:29:41.820Z,36.69
2016-09-08T11:30:41.496Z,36.44
2016-09-08T11:31:41.497Z,36.15
2016-09-08T11:32:41.754Z,35.72
2016-09-08T11:33:41.432Z,35.33
2016-09-08T11:34:41.713Z,35.06
2016-09-08T11:35:41.690Z,34.7
2016-09-08T11:36:41.672Z,34.3
2016-09-08T11:37:41.660Z,33.97
2016-09-08T11:38:41.638Z,33.66
2016-09-08T11:39:41.616Z,33.37
2016-09-08T11:40:41.599Z,33.11
2016-09-08T11:41:41.576Z,32.81
2016-09-08T11:42:41.555Z,32.47
2016-09-08T11:43:41.238Z,32.32
2016-09-08T11:44:41.206Z,32.11
2016-09-08T11:45:41.500Z,31.96
2016-09-08T11:46:41.473Z,31.78
2016-09-08T11:47:41.140Z,31.62
2016-09-08T11:48:41.426Z,31.39
2016-09-08T11:49:41.098Z,31.32
2016-09-08T11:50:41.076Z,31.17
2016-09-08T11:51:40.758Z,31.01
2016-09-08T11:52:41.333Z,30.91
2016-09-08T11:53:41.009Z,30.64
2016-09-08T11:54:41.288Z,30.73
2016-09-08T11:55:41.263Z,30.57
2016-09-08T11:56:40.941Z,30.47
2016-09-08T11:57:41.221Z,30.42
2016-09-08T11:58:40.591Z,30.38
2016-09-08T11:59:40.894Z,30.23
2016-09-08T12:00:40.849Z,30.11
2016-09-08T12:01:40.824Z,29.92
2016-09-08T12:02:40.499Z,29.87
2016-09-08T12:03:40.779Z,29.82
2016-09-08T12:04:41.058Z,29.65
2016-09-08T12:05:40.731Z,29.57
2016-09-08T12:06:41.012Z,29.42
2016-09-08T12:07:40.987Z,29.46
2016-09-08T12:08:40.962Z,29.37
2016-09-08T12:09:40.944Z,29.34
2016-09-08T12:10:40.612Z,29.39
2016-09-08T12:11:40.587Z,29.33
2016-09-08T12:12:40.869Z,29.27
2016-09-08T12:13:40.846Z,29.24
2016-09-08T12:14:40.515Z,29.14
2016-09-08T12:15:40.492Z,29.08
2016-09-08T12:16:40.770Z,29
2016-09-08T12:17:40.759Z,29
2016-09-08T12:18:40.727Z,28.95
2016-09-08T12:19:40.697Z,28.88
2016-09-08T12:20:40.676Z,28.95
2016-09-08T12:21:40.651Z,28.95
2016-09-08T12:22:40.626Z,28.81
2016-09-08T12:23:40.599Z,28.81
2016-09-08T12:24:40.273Z,28.77
2016-09-08T12:25:40.552Z,28.8
2016-09-08T12:26:40.530Z,28.77
2016-09-08T12:27:40.213Z,28.78
2016-09-08T12:28:40.476Z,28.77
2016-09-08T12:29:40.154Z,28.68
2016-09-08T12:30:40.429Z,28.68
2016-09-08T12:31:40.101Z,28.67
2016-09-08T12:32:40.383Z,28.68
2016-09-08T12:33:40.362Z,28.66
2016-09-08T12:34:40.027Z,28.66
2016-09-08T12:35:40.304Z,28.7
2016-09-08T12:36:40.279Z,28.67
2016-09-08T12:37:40.255Z,28.67
2016-09-08T12:38:39.929Z,28.64
2016-09-08T12:39:39.904Z,28.67
2016-09-08T12:40:39.881Z,28.56
2016-09-08T12:41:40.157Z,28.64
2016-09-08T12:42:40.140Z,28.55
2016-09-08T12:43:40.104Z,28.59
2016-09-08T12:44:39.784Z,28.52
2016-09-08T12:45:40.055Z,28.59
2016-09-08T12:46:40.032Z,28.62
2016-09-08T12:47:40.016Z,28.62
2016-09-08T12:48:39.679Z,28.62
2016-09-08T12:49:39.962Z,28.56
2016-09-08T12:50:39.939Z,28.55
2016-09-08T12:51:39.910Z,28.44
2016-09-08T12:52:39.880Z,28.49
2016-09-08T12:53:39.859Z,28.39
2016-09-08T12:54:39.831Z,28.48